Time;durP1;ratioP1;P1;durP2;ratioP2;P2;SDS_P1;SDS_P2;PMS_P1;PMS_P2;Temp;Humidity;BMP_temperature;BMP_pressure;BME280_temperature;BME280_humidity;BME280_pressure;Samples;Min_cycle;Max_cycle;Signal;HPM_P1;HPM_P2
2021/09/18 00:00:03;;;;;;;355.98;172.82;;;;;15.10;100776.00;;;;4874252;29;20778;-76
2021/09/18 00:02:32;;;;;;;318.70;96.55;;;;;15.10;100794.00;;;;4874153;29;20056;-76
2021/09/18 00:05:02;;;;;;;582.88;85.85;;;;;15.10;100827.00;;;;4874745;29;20049;-79
2021/09/18 00:07:31;;;;;;;23.67;15.00;;;;;15.10;100823.00;;;;4876014;29;20056;-79
2021/09/18 00:10:00;;;;;;;123.22;40.50;;;;;15.10;100815.00;;;;4875661;29;20588;-79
2021/09/18 00:12:29;;;;;;;18.70;12.82;;;;;15.10;100818.00;;;;4878921;29;20079;-76
2021/09/18 00:14:59;;;;;;;1999.90;999.90;;;;;15.10;100830.00;;;;4882758;29;20101;-77
2021/09/18 00:17:29;;;;;;;16.67;12.45;;;;;15.10;100856.00;;;;4876882;29;20506;-77
2021/09/18 00:19:58;;;;;;;1.92;1.83;;;;;15.00;100844.00;;;;4875791;29;20151;-77
2021/09/18 00:22:28;;;;;;;148.23;122.00;;;;;15.00;100835.00;;;;4873825;29;20056;-78
2021/09/18 00:24:57;;;;;;;203.40;63.40;;;;;15.00;100843.00;;;;4874408;29;20454;-77
2021/09/18 00:27:26;;;;;;;454.20;115.70;;;;;15.00;100850.00;;;;4875546;29;20045;-75
2021/09/18 00:29:55;;;;;;;88.57;72.78;;;;;15.00;100844.00;;;;4877362;29;20178;-77
2021/09/18 00:32:24;;;;;;;150.25;48.05;;;;;15.00;100832.00;;;;4879220;29;20527;-77
2021/09/18 00:34:53;;;;;;;7.13;6.30;;;;;15.00;100811.00;;;;4880084;29;20075;-76
2021/09/18 00:37:22;;;;;;;9.23;6.22;;;;;14.90;100827.00;;;;4882053;29;20049;-76
2021/09/18 00:39:51;;;;;;;8.45;6.40;;;;;14.90;100801.00;;;;4880121;29;20069;-75
2021/09/18 00:42:20;;;;;;;28.67;25.58;;;;;14.90;100802.00;;;;4883720;29;20049;-77
2021/09/18 00:44:51;;;;;;;0.03;0.03;;;;;14.80;100804.00;;;;4883439;29;20083;-77
2021/09/18 00:47:21;;;;;;;2.80;1.98;;;;;14.70;100805.00;;;;4881899;29;20354;-78
2021/09/18 00:49:50;;;;;;;0.00;0.00;;;;;14.60;100797.00;;;;4880088;29;20576;-77
2021/09/18 00:52:19;;;;;;;41.15;19.15;;;;;14.50;100789.00;;;;4880683;29;20041;-80
2021/09/18 00:54:50;;;;;;;0.20;0.15;;;;;14.40;100788.00;;;;4880626;29;20112;-78
2021/09/18 00:57:19;;;;;;;5.10;2.60;;;;;14.40;100784.00;;;;4882707;29;20433;-78
2021/09/18 00:59:48;;;;;;;1457.78;318.52;;;;;14.30;100795.00;;;;4880002;29;20084;-77
2021/09/18 01:02:17;;;;;;;33.97;22.90;;;;;14.30;100828.00;;;;4882308;29;20112;-77
2021/09/18 01:04:46;;;;;;;7.75;5.60;;;;;14.30;100829.00;;;;4881486;29;20063;-79
2021/09/18 01:07:16;;;;;;;4.30;3.90;;;;;14.40;100809.00;;;;4881708;29;20049;-78
2021/09/18 01:09:46;;;;;;;11.05;7.40;;;;;14.40;100813.00;;;;4881456;29;20502;-79
2021/09/18 01:12:15;;;;;;;14.85;7.35;;;;;14.40;100784.00;;;;4881780;29;20061;-78
2021/09/18 01:14:46;;;;;;;53.45;29.42;;;;;14.50;100819.00;;;;4881941;29;20067;-78
2021/09/18 01:17:16;;;;;;;89.20;70.10;;;;;14.50;100816.00;;;;4881819;29;20424;-78
2021/09/18 01:19:45;;;;;;;18.60;9.55;;;;;14.60;100815.00;;;;4881547;29;20049;-77
2021/09/18 01:22:19;;;;;;;19.42;8.02;;;;;14.60;100826.00;;;;4882035;29;20049;-77
2021/09/18 01:24:48;;;;;;;10.60;4.22;;;;;14.60;100827.00;;;;4881501;29;20056;-78
2021/09/18 01:27:17;;;;;;;4.40;3.05;;;;;14.60;100821.00;;;;4885129;29;20056;-78
2021/09/18 01:29:46;;;;;;;275.60;110.25;;;;;14.70;100808.00;;;;4882410;29;20045;-79
2021/09/18 01:32:18;;;;;;;132.02;120.43;;;;;14.70;100800.00;;;;4876973;29;20428;-80
2021/09/18 01:34:49;;;;;;;31.80;29.33;;;;;14.60;100792.00;;;;4876852;29;20061;-81
2021/09/18 01:37:18;;;;;;;5.07;3.75;;;;;14.60;100782.00;;;;4877584;29;20053;-78
2021/09/18 01:39:47;;;;;;;51.05;36.33;;;;;14.60;100778.00;;;;4877483;29;20448;-78
2021/09/18 01:42:16;;;;;;;9.18;6.38;;;;;14.70;100791.00;;;;4877782;29;20585;-79
2021/09/18 01:44:45;;;;;;;1522.28;765.38;;;;;14.80;100776.00;;;;4877961;29;20072;-78
2021/09/18 01:47:14;;;;;;;50.15;13.38;;;;;14.80;100784.00;;;;4877994;29;20055;-78
2021/09/18 01:49:43;;;;;;;6.68;5.63;;;;;14.80;100783.00;;;;4877994;29;20049;-78
2021/09/18 01:52:47;;;;;;;11.20;8.48;;;;;14.80;100804.00;;;;4877914;29;20744;-79
2021/09/18 01:55:08;;;;;;;8.93;6.43;;;;;14.80;100815.00;;;;4876729;29;20065;-80
2021/09/18 01:57:40;;;;;;;116.10;32.63;;;;;14.80;100806.00;;;;4878333;29;20088;-78
2021/09/18 02:00:12;;;;;;;10.80;8.95;;;;;14.90;100803.00;;;;4878471;29;20059;-80
2021/09/18 02:02:42;;;;;;;14.70;10.35;;;;;14.90;100813.00;;;;4878043;29;20057;-78
2021/09/18 02:05:13;;;;;;;17.00;15.23;;;;;14.90;100811.00;;;;4878109;29;20109;-80
2021/09/18 02:07:42;;;;;;;1999.90;999.90;;;;;14.90;100805.00;;;;4878926;29;20057;-79
2021/09/18 02:10:15;;;;;;;1999.90;999.90;;;;;14.90;100817.00;;;;4877759;29;20057;-79
2021/09/18 02:12:45;;;;;;;2.63;2.53;;;;;14.90;100795.00;;;;4878806;29;20049;-80
2021/09/18 02:15:19;;;;;;;5.95;4.63;;;;;14.90;100797.00;;;;4877336;29;20120;-79
2021/09/18 02:17:49;;;;;;;275.88;118.13;;;;;14.80;100809.00;;;;4878500;29;20064;-79
2021/09/18 02:20:22;;;;;;;33.00;12.70;;;;;14.80;100788.00;;;;4877521;29;20055;-80
2021/09/18 02:22:51;;;;;;;233.82;42.20;;;;;14.70;100792.00;;;;4877282;29;20049;-81
2021/09/18 02:25:20;;;;;;;157.07;21.88;;;;;14.60;100785.00;;;;4878067;29;20053;-80
2021/09/18 02:27:50;;;;;;;1127.65;554.35;;;;;14.50;100785.00;;;;4877765;29;20053;-78
2021/09/18 02:30:24;;;;;;;3.15;1.80;;;;;14.40;100780.00;;;;4878403;29;20056;-78
2021/09/18 02:32:53;;;;;;;3.00;1.50;;;;;14.40;100782.00;;;;4884050;29;20113;-77
2021/09/18 02:35:25;;;;;;;4.32;2.35;;;;;14.40;100788.00;;;;4884189;29;20065;-77
2021/09/18 02:37:59;;;;;;;14.18;8.35;;;;;14.30;100779.00;;;;4883758;29;20069;-78
2021/09/18 02:40:29;;;;;;;5.65;3.28;;;;;14.20;100765.00;;;;4883857;29;20543;-77
2021/09/18 02:43:01;;;;;;;318.67;40.38;;;;;14.10;100751.00;;;;4883621;29;20048;-76
2021/09/18 02:45:30;;;;;;;16.90;12.00;;;;;14.00;100751.00;;;;4885019;29;20041;-77
2021/09/18 02:48:00;;;;;;;28.52;7.80;;;;;14.00;100763.00;;;;4883623;29;20168;-79
2021/09/18 02:50:29;;;;;;;3.53;2.03;;;;;13.90;100762.00;;;;4884344;29;20049;-79
2021/09/18 02:52:58;;;;;;;10.57;9.52;;;;;13.90;100752.00;;;;4883842;29;20521;-76
2021/09/18 02:55:26;;;;;;;63.95;10.13;;;;;13.80;100758.00;;;;4883302;29;20061;-79
2021/09/18 02:57:55;;;;;;;2.88;1.33;;;;;13.80;100741.00;;;;4884589;29;20052;-76
2021/09/18 03:00:24;;;;;;;9.40;4.57;;;;;13.70;100748.00;;;;4883826;29;20041;-78
2021/09/18 03:02:53;;;;;;;31.92;7.03;;;;;13.70;100746.00;;;;4884841;29;20053;-76
2021/09/18 03:05:23;;;;;;;15.88;6.30;;;;;13.60;100747.00;;;;4884642;29;20061;-77
2021/09/18 03:07:52;;;;;;;6.07;4.88;;;;;13.60;100760.00;;;;4885337;29;20052;-76
2021/09/18 03:10:21;;;;;;;18.50;5.60;;;;;13.50;100741.00;;;;4885164;29;20045;-76
2021/09/18 03:12:49;;;;;;;2.75;2.22;;;;;13.50;100757.00;;;;4885075;29;20683;-76
2021/09/18 03:15:18;;;;;;;9.60;3.28;;;;;13.40;100744.00;;;;4885342;29;20116;-76
2021/09/18 03:17:47;;;;;;;7.68;4.75;;;;;13.40;100744.00;;;;4884281;29;20057;-76
2021/09/18 03:20:16;;;;;;;10.48;4.47;;;;;13.30;100740.00;;;;4885776;29;20490;-76
2021/09/18 03:22:45;;;;;;;5.65;4.15;;;;;13.30;100747.00;;;;4885717;29;20610;-77
2021/09/18 03:25:14;;;;;;;9.27;8.48;;;;;13.40;100735.00;;;;4885626;29;20148;-77
2021/09/18 03:27:43;;;;;;;9.43;5.50;;;;;13.50;100729.00;;;;4885195;29;20061;-76
2021/09/18 03:30:12;;;;;;;12.13;6.78;;;;;13.50;100746.00;;;;4886564;29;20691;-77
2021/09/18 03:32:41;;;;;;;11.48;5.82;;;;;13.50;100737.00;;;;4885786;29;20051;-77
2021/09/18 03:35:10;;;;;;;19.98;6.30;;;;;13.50;100736.00;;;;4882532;29;20053;-79
2021/09/18 03:37:39;;;;;;;34.33;5.15;;;;;13.50;100727.00;;;;4882101;29;20061;-78
2021/09/18 03:40:11;;;;;;;15.02;4.50;;;;;13.60;100720.00;;;;4882906;29;20077;-77
2021/09/18 03:42:40;;;;;;;51.17;7.35;;;;;13.60;100733.00;;;;4883769;29;20063;-79
2021/09/18 03:45:09;;;;;;;230.48;24.88;;;;;13.70;100728.00;;;;4881329;29;20049;-77
2021/09/18 03:47:39;;;;;;;145.80;17.73;;;;;13.80;100729.00;;;;4881392;29;20429;-78
2021/09/18 03:50:09;;;;;;;77.53;9.23;;;;;13.90;100719.00;;;;4881583;29;20061;-77
2021/09/18 03:52:39;;;;;;;689.03;110.43;;;;;13.90;100711.00;;;;4882269;29;20090;-78
2021/09/18 03:55:08;;;;;;;412.00;46.30;;;;;14.00;100711.00;;;;4882181;29;20085;-77
2021/09/18 03:57:38;;;;;;;133.75;40.03;;;;;14.00;100696.00;;;;4881300;29;20065;-78
2021/09/18 04:00:08;;;;;;;1999.90;999.90;;;;;14.10;100701.00;;;;4880994;29;20063;-77
2021/09/18 04:02:36;;;;;;;269.73;30.10;;;;;14.10;100701.00;;;;4881157;29;20052;-77
2021/09/18 04:05:07;;;;;;;213.30;25.55;;;;;14.10;100688.00;;;;4881644;29;20049;-80
2021/09/18 04:07:35;;;;;;;612.15;178.35;;;;;14.10;100694.00;;;;4881948;29;20049;-77
2021/09/18 04:10:05;;;;;;;157.85;32.58;;;;;14.10;100705.00;;;;4881352;29;20071;-77
2021/09/18 04:12:35;;;;;;;428.65;42.47;;;;;14.10;100702.00;;;;4881630;29;20053;-78
2021/09/18 04:15:06;;;;;;;973.13;60.15;;;;;14.10;100692.00;;;;4881772;29;20208;-77
2021/09/18 04:17:35;;;;;;;686.90;94.68;;;;;14.10;100693.00;;;;4881539;29;20103;-79
2021/09/18 04:20:05;;;;;;;592.08;50.03;;;;;14.10;100679.00;;;;4880072;29;20082;-78
2021/09/18 04:22:34;;;;;;;818.63;53.55;;;;;14.10;100691.00;;;;4875517;29;20104;-79
2021/09/18 04:25:04;;;;;;;647.03;39.58;;;;;14.10;100677.00;;;;4874795;29;20056;-79
2021/09/18 04:27:33;;;;;;;695.53;40.10;;;;;14.10;100673.00;;;;4873587;29;20059;-80
2021/09/18 04:30:04;;;;;;;364.67;21.67;;;;;14.00;100692.00;;;;4877357;29;20124;-78
2021/09/18 04:32:35;;;;;;;1999.90;999.90;;;;;14.10;100685.00;;;;4876152;29;20060;-80
2021/09/18 04:35:05;;;;;;;213.73;21.00;;;;;14.00;100692.00;;;;4874104;29;20453;-79
2021/09/18 04:37:34;;;;;;;44.78;29.70;;;;;14.00;100684.00;;;;4874447;29;20063;-79
2021/09/18 04:40:04;;;;;;;27.67;4.18;;;;;14.00;100690.00;;;;4874645;29;20065;-78
2021/09/18 04:42:33;;;;;;;403.20;89.20;;;;;14.00;100676.00;;;;4875791;29;20060;-79
2021/09/18 04:45:04;;;;;;;695.05;202.88;;;;;13.90;100674.00;;;;4879363;29;20057;-77
2021/09/18 04:47:33;;;;;;;69.82;10.13;;;;;13.90;100670.00;;;;4878941;29;20049;-77
2021/09/18 04:50:03;;;;;;;181.30;70.47;;;;;13.80;100666.00;;;;4877682;29;20057;-79
2021/09/18 04:52:32;;;;;;;1999.90;999.90;;;;;13.70;100671.00;;;;4877602;29;20425;-77
2021/09/18 04:55:02;;;;;;;138.55;68.75;;;;;13.70;100665.00;;;;4877081;29;20053;-78
2021/09/18 04:57:31;;;;;;;1999.90;999.90;;;;;13.60;100674.00;;;;4877090;29;20063;-79
2021/09/18 05:00:00;;;;;;;227.63;20.98;;;;;13.50;100655.00;;;;4875646;29;20053;-78
2021/09/18 05:02:28;;;;;;;98.70;18.08;;;;;13.40;100657.00;;;;4876159;29;20057;-79
2021/09/18 05:04:58;;;;;;;46.47;8.80;;;;;13.40;100643.00;;;;4877673;29;20080;-79
2021/09/18 05:07:27;;;;;;;618.80;331.67;;;;;13.30;100656.00;;;;4877261;29;20097;-77
2021/09/18 05:09:57;;;;;;;12.82;7.80;;;;;13.20;100636.00;;;;4880054;29;20580;-77
2021/09/18 05:12:26;;;;;;;18.63;11.82;;;;;13.10;100641.00;;;;4883395;29;20064;-78
2021/09/18 05:14:55;;;;;;;28.50;14.73;;;;;13.10;100646.00;;;;4883997;29;20552;-78
2021/09/18 05:17:23;;;;;;;13.98;10.75;;;;;13.00;100638.00;;;;4884471;29;20056;-77
2021/09/18 05:19:55;;;;;;;58.47;12.65;;;;;13.00;100659.00;;;;4885684;29;20057;-77
2021/09/18 05:22:24;;;;;;;30.85;15.15;;;;;12.90;100620.00;;;;4884723;29;20048;-78
2021/09/18 05:24:53;;;;;;;214.55;19.40;;;;;12.90;100635.00;;;;4884045;29;20500;-78
2021/09/18 05:27:22;;;;;;;226.55;16.83;;;;;12.90;100609.00;;;;4884688;29;20046;-76
2021/09/18 05:29:51;;;;;;;165.10;16.90;;;;;13.00;100620.00;;;;4884436;29;20067;-77
2021/09/18 05:32:20;;;;;;;349.90;23.20;;;;;12.90;100581.00;;;;4884512;29;20105;-78
2021/09/18 05:34:49;;;;;;;101.35;11.90;;;;;13.00;100591.00;;;;4883649;29;20054;-76
2021/09/18 05:37:19;;;;;;;259.15;64.43;;;;;12.90;100591.00;;;;4883685;29;20064;-77
2021/09/18 05:39:48;;;;;;;40.90;15.90;;;;;12.80;100604.00;;;;4884854;29;20049;-78
2021/09/18 05:42:18;;;;;;;54.47;14.95;;;;;12.80;100593.00;;;;4882769;29;20061;-75
2021/09/18 05:44:47;;;;;;;25.23;13.25;;;;;12.70;100582.00;;;;4883228;29;20049;-79
2021/09/18 05:47:16;;;;;;;20.20;12.48;;;;;12.70;100570.00;;;;4882848;29;20063;-77
2021/09/18 05:49:45;;;;;;;76.78;14.18;;;;;12.70;100574.00;;;;4883161;29;20053;-77
2021/09/18 05:52:14;;;;;;;16.58;12.02;;;;;12.70;100568.00;;;;4882501;29;20049;-77
2021/09/18 05:54:42;;;;;;;22.02;11.50;;;;;12.70;100573.00;;;;4881662;29;20049;-76
2021/09/18 05:57:11;;;;;;;37.08;33.47;;;;;12.70;100586.00;;;;4882769;29;20448;-81
2021/09/18 05:59:40;;;;;;;21.42;12.20;;;;;12.70;100583.00;;;;4883510;29;20045;-78
2021/09/18 06:02:09;;;;;;;34.90;12.07;;;;;12.60;100561.00;;;;4883059;29;20053;-77
2021/09/18 06:04:39;;;;;;;60.45;36.95;;;;;12.60;100568.00;;;;4883365;29;20125;-77
2021/09/18 06:07:08;;;;;;;94.28;24.10;;;;;12.50;100577.00;;;;4883849;29;20059;-76
2021/09/18 06:09:36;;;;;;;25.33;13.25;;;;;12.60;100559.00;;;;4884239;29;20053;-76
2021/09/18 06:12:06;;;;;;;193.15;129.73;;;;;12.60;100566.00;;;;4887431;29;20736;-76
2021/09/18 06:14:35;;;;;;;10.82;10.02;;;;;12.70;100562.00;;;;4887788;29;20048;-76
2021/09/18 06:17:04;;;;;;;12.10;9.35;;;;;12.70;100553.00;;;;4887451;29;20071;-77
2021/09/18 06:19:33;;;;;;;25.20;13.73;;;;;12.70;100549.00;;;;4887748;29;20061;-76
2021/09/18 06:22:02;;;;;;;471.42;135.35;;;;;12.70;100544.00;;;;4886621;29;20130;-76
2021/09/18 06:24:31;;;;;;;370.48;168.95;;;;;12.60;100557.00;;;;4887119;29;20472;-77
2021/09/18 06:27:01;;;;;;;18.70;10.15;;;;;12.50;100561.00;;;;4886023;29;20148;-76
2021/09/18 06:29:30;;;;;;;45.08;25.35;;;;;12.50;100558.00;;;;4884389;29;20539;-76
2021/09/18 06:31:59;;;;;;;26.70;12.15;;;;;12.50;100568.00;;;;4884402;29;20053;-76
2021/09/18 06:34:28;;;;;;;32.80;17.83;;;;;12.40;100546.00;;;;4884173;29;20060;-77
2021/09/18 06:36:57;;;;;;;22.52;11.73;;;;;12.40;100561.00;;;;4884709;29;20060;-79
2021/09/18 06:39:26;;;;;;;26.15;12.35;;;;;12.40;100558.00;;;;4883986;29;20057;-80
2021/09/18 06:41:55;;;;;;;333.20;48.15;;;;;12.40;100562.00;;;;4881997;29;20045;-77
2021/09/18 06:44:24;;;;;;;26.88;12.23;;;;;12.50;100570.00;;;;4883644;29;20117;-77
2021/09/18 06:46:53;;;;;;;47.03;10.48;;;;;12.40;100571.00;;;;4884435;29;20058;-78
2021/09/18 06:49:22;;;;;;;15.02;8.05;;;;;12.40;100563.00;;;;4884102;29;20049;-77
2021/09/18 06:51:52;;;;;;;0.00;0.00;;;;;12.30;100556.00;;;;4884038;29;20063;-76
2021/09/18 06:54:21;;;;;;;0.63;0.50;;;;;12.20;100554.00;;;;4882995;29;20045;-76
2021/09/18 06:56:50;;;;;;;2.28;0.50;;;;;12.20;100567.00;;;;4883475;29;20061;-78
2021/09/18 06:59:19;;;;;;;3.20;3.05;;;;;12.30;100575.00;;;;4884397;29;20057;-77
2021/09/18 07:01:48;;;;;;;9.52;7.55;;;;;12.30;100555.00;;;;4883605;29;20505;-77
2021/09/18 07:04:17;;;;;;;55.15;21.73;;;;;12.30;100564.00;;;;4883189;29;20100;-77
2021/09/18 07:06:46;;;;;;;5.22;2.97;;;;;12.30;100565.00;;;;4881517;29;20057;-77
2021/09/18 07:09:15;;;;;;;162.43;53.80;;;;;12.50;100558.00;;;;4875026;29;20051;-79
2021/09/18 07:11:44;;;;;;;1055.40;549.95;;;;;12.40;100569.00;;;;4877053;29;20057;-79
2021/09/18 07:14:13;;;;;;;250.73;12.75;;;;;12.40;100568.00;;;;4876812;29;20052;-80
2021/09/18 07:16:42;;;;;;;1513.30;752.10;;;;;12.50;100572.00;;;;4877515;29;20421;-79
2021/09/18 07:19:11;;;;;;;159.90;17.20;;;;;12.40;100579.00;;;;4879163;29;20049;-78
2021/09/18 07:21:40;;;;;;;196.52;57.85;;;;;12.40;100570.00;;;;4876922;29;20076;-78
2021/09/18 07:24:09;;;;;;;316.23;34.70;;;;;12.50;100580.00;;;;4876264;29;20053;-77
2021/09/18 07:26:38;;;;;;;209.45;16.88;;;;;12.40;100576.00;;;;4877102;29;20060;-78
2021/09/18 07:29:07;;;;;;;236.23;23.85;;;;;12.40;100576.00;;;;4876489;29;20057;-77
2021/09/18 07:31:36;;;;;;;359.70;147.50;;;;;12.40;100564.00;;;;4877312;29;20055;-78
2021/09/18 07:34:06;;;;;;;347.40;44.58;;;;;12.40;100556.00;;;;4878505;29;20053;-77
2021/09/18 07:36:35;;;;;;;274.63;26.02;;;;;12.40;100570.00;;;;4879282;29;20511;-78
2021/09/18 07:39:04;;;;;;;174.05;24.13;;;;;12.40;100580.00;;;;4881680;29;20819;-79
2021/09/18 07:41:33;;;;;;;174.85;23.55;;;;;12.40;100561.00;;;;4880331;29;20425;-79
2021/09/18 07:44:02;;;;;;;98.03;14.00;;;;;12.40;100563.00;;;;4879382;29;20056;-79
2021/09/18 07:46:31;;;;;;;118.20;16.02;;;;;12.50;100561.00;;;;4879032;29;20457;-80
2021/09/18 07:49:00;;;;;;;176.55;25.08;;;;;12.40;100563.00;;;;4880816;29;20081;-76
2021/09/18 07:51:30;;;;;;;243.70;22.13;;;;;12.50;100580.00;;;;4880686;29;20063;-77
2021/09/18 07:53:59;;;;;;;280.25;21.65;;;;;12.60;100565.00;;;;4879951;29;20053;-79
2021/09/18 07:56:28;;;;;;;278.65;21.55;;;;;12.60;100555.00;;;;4879852;29;20083;-78
2021/09/18 07:58:57;;;;;;;298.83;22.80;;;;;12.60;100570.00;;;;4878962;29;20061;-78
2021/09/18 08:01:28;;;;;;;427.20;26.65;;;;;12.70;100566.00;;;;4880367;29;20049;-79
2021/09/18 08:04:02;;;;;;;768.65;42.95;;;;;12.70;100573.00;;;;4879327;29;20167;-78
2021/09/18 08:06:33;;;;;;;438.30;29.83;;;;;12.80;100577.00;;;;4880236;29;20053;-78
2021/09/18 08:09:04;;;;;;;;;;;;;12.80;100590.00;;;;4882151;29;20525;-77
2021/09/18 08:11:33;;;;;;;340.85;24.40;;;;;12.90;100577.00;;;;4880956;29;19924;-78
2021/09/18 08:14:03;;;;;;;439.63;120.95;;;;;12.80;100578.00;;;;4880377;29;20056;-77
2021/09/18 08:16:32;;;;;;;349.30;23.30;;;;;12.80;100576.00;;;;4883579;29;20044;-77
2021/09/18 08:19:01;;;;;;;6.05;5.75;;;;;12.90;100595.00;;;;4883611;29;20053;-77
2021/09/18 08:21:30;;;;;;;158.88;10.57;;;;;12.90;100600.00;;;;4875392;29;20053;-79
2021/09/18 08:23:59;;;;;;;387.02;25.98;;;;;12.90;100600.00;;;;4882733;29;20045;-77
2021/09/18 08:26:30;;;;;;;398.63;43.75;;;;;12.90;100604.00;;;;4883174;29;20045;-77
2021/09/18 08:28:59;;;;;;;331.27;44.40;;;;;12.90;100600.00;;;;4879465;29;20057;-80
2021/09/18 08:31:28;;;;;;;335.23;75.13;;;;;13.00;100603.00;;;;4880249;29;20298;-77
2021/09/18 08:33:57;;;;;;;131.02;10.45;;;;;13.00;100611.00;;;;4880297;29;20139;-82
2021/09/18 08:36:30;;;;;;;258.23;177.82;;;;;13.00;100612.00;;;;4880740;29;20072;-79
2021/09/18 08:38:59;;;;;;;445.25;63.00;;;;;13.00;100625.00;;;;4881447;29;20048;-79
2021/09/18 08:41:30;;;;;;;463.95;28.60;;;;;13.00;100607.00;;;;4881219;29;20390;-80
2021/09/18 08:43:59;;;;;;;237.75;29.13;;;;;13.00;100606.00;;;;4881083;29;20164;-77
2021/09/18 08:46:30;;;;;;;543.92;39.20;;;;;13.10;100614.00;;;;4883386;29;20049;-77
2021/09/18 08:48:59;;;;;;;532.63;39.07;;;;;13.10;100622.00;;;;4883375;29;20109;-77
2021/09/18 08:51:28;;;;;;;269.90;32.72;;;;;13.20;100617.00;;;;4883438;29;20685;-79
2021/09/18 08:53:58;;;;;;;434.73;35.53;;;;;13.10;100621.00;;;;4882881;29;20486;-79
2021/09/18 08:56:27;;;;;;;443.10;25.52;;;;;13.10;100605.00;;;;4883006;29;20049;-77
2021/09/18 08:58:57;;;;;;;460.80;39.67;;;;;13.20;100619.00;;;;4881389;29;20057;-78
2021/09/18 09:01:26;;;;;;;329.02;32.67;;;;;13.20;100613.00;;;;4883079;29;20055;-76
2021/09/18 09:04:01;;;;;;;40.35;7.97;;;;;13.10;100610.00;;;;4882185;29;20488;-78
2021/09/18 09:06:41;;;;;;;226.48;30.70;;;;;13.20;100611.00;;;;4883307;29;20106;-77
2021/09/18 09:09:10;;;;;;;298.50;27.35;;;;;13.20;100625.00;;;;4883299;29;20475;-78
2021/09/18 09:11:48;;;;;;;75.55;6.45;;;;;13.20;100611.00;;;;4882339;29;20049;-78
2021/09/18 09:14:18;;;;;;;113.78;16.58;;;;;13.20;100599.00;;;;4883173;29;20140;-78
2021/09/18 09:17:06;;;;;;;335.02;29.65;;;;;13.20;100606.00;;;;4883364;29;20052;-77
2021/09/18 09:19:41;;;;;;;355.48;33.22;;;;;13.10;100613.00;;;;4883117;29;20053;-79
2021/09/18 09:22:10;;;;;;;339.95;29.25;;;;;13.20;100611.00;;;;4883315;29;20165;-77
2021/09/18 09:24:48;;;;;;;714.42;115.43;;;;;13.20;100628.00;;;;4883154;29;20087;-78
2021/09/18 09:27:20;;;;;;;408.17;36.47;;;;;13.20;100633.00;;;;4879905;29;20053;-77
2021/09/18 09:29:53;;;;;;;268.00;23.25;;;;;13.30;100624.00;;;;4879522;29;20064;-79
2021/09/18 09:32:29;;;;;;;419.33;29.58;;;;;13.30;100624.00;;;;4878464;29;20053;-78
2021/09/18 09:35:00;;;;;;;423.92;30.02;;;;;13.30;100631.00;;;;4878280;29;20136;-78
2021/09/18 09:37:28;;;;;;;;;;;;;13.30;100644.00;;;;4880035;29;20057;-78
2021/09/18 09:40:02;;;;;;;382.77;27.23;;;;;13.40;100645.00;;;;4877617;29;19927;-79
2021/09/18 09:42:34;;;;;;;323.52;23.85;;;;;13.30;100656.00;;;;4879171;29;20536;-79
2021/09/18 09:45:15;;;;;;;434.05;34.92;;;;;13.40;100658.00;;;;4878993;29;20060;-77
2021/09/18 09:47:44;;;;;;;;;;;;;13.50;100664.00;;;;4886979;29;20045;-77
2021/09/18 09:50:19;;;;;;;366.15;26.10;;;;;13.50;100648.00;;;;4883881;29;19934;-77
2021/09/18 09:52:50;;;;;;;472.88;36.08;;;;;13.50;100657.00;;;;4884273;29;20059;-78
2021/09/18 09:55:19;;;;;;;270.45;38.95;;;;;13.50;100646.00;;;;4877349;29;20048;-80
2021/09/18 09:58:02;;;;;;;261.73;31.60;;;;;13.60;100672.00;;;;4876611;29;20057;-77
2021/09/18 10:00:43;;;;;;;355.75;33.60;;;;;13.60;100666.00;;;;4875336;29;20052;-78
2021/09/18 10:03:12;;;;;;;332.85;31.73;;;;;13.50;100667.00;;;;4874307;29;20087;-80
2021/09/18 10:05:42;;;;;;;322.65;43.13;;;;;13.60;100662.00;;;;4877369;29;20136;-78
2021/09/18 10:08:13;;;;;;;251.40;64.07;;;;;13.70;100657.00;;;;4876124;29;20049;-77
2021/09/18 10:10:42;;;;;;;310.20;28.65;;;;;13.70;100680.00;;;;4877069;29;20053;-79
2021/09/18 10:13:12;;;;;;;369.88;36.25;;;;;13.70;100662.00;;;;4877199;29;20481;-78
2021/09/18 10:15:43;;;;;;;218.07;82.45;;;;;13.80;100659.00;;;;4876629;29;20539;-79
2021/09/18 10:18:14;;;;;;;147.23;27.02;;;;;13.80;100679.00;;;;4876246;29;20160;-79
2021/09/18 10:23:24;;;;;;;35.83;9.05;;;;;13.90;100657.00;;;;4876263;29;20085;-79
2021/09/18 10:25:56;;;;;;;239.85;112.75;;;;;14.10;100660.00;;;;4877105;29;20105;-79
2021/09/18 10:28:26;;;;;;;95.60;17.80;;;;;14.20;100674.00;;;;4876637;29;20827;-77
2021/09/18 10:30:58;;;;;;;28.55;12.43;;;;;14.20;100677.00;;;;4879000;29;20053;-77
2021/09/18 10:33:32;;;;;;;101.63;49.53;;;;;14.20;100680.00;;;;4879572;29;20506;-78
2021/09/18 10:36:11;;;;;;;13.60;8.98;;;;;14.10;100670.00;;;;4880539;29;20064;-77
2021/09/18 10:38:46;;;;;;;89.13;80.90;;;;;14.10;100705.00;;;;4881807;29;20060;-77
2021/09/18 10:41:19;;;;;;;1.98;1.70;;;;;14.20;100696.00;;;;4880755;29;20537;-79
2021/09/18 10:43:59;;;;;;;0.90;0.90;;;;;14.30;100680.00;;;;4878391;29;20053;-79
2021/09/18 10:46:55;;;;;;;16.45;10.05;;;;;14.30;100698.00;;;;4875564;29;20090;-78
2021/09/18 10:49:34;;;;;;;83.03;74.22;;;;;14.30;100702.00;;;;4875549;29;20081;-78
2021/09/18 10:52:19;;;;;;;16.40;10.15;;;;;14.40;100706.00;;;;4874558;29;20071;-79
2021/09/18 10:55:17;;;;;;;16.35;10.80;;;;;14.50;100709.00;;;;4876854;29;20767;-80
2021/09/18 10:57:48;;;;;;;26.48;15.80;;;;;14.60;100703.00;;;;4873928;29;20053;-78
2021/09/18 11:00:28;;;;;;;20.02;12.40;;;;;14.50;100711.00;;;;4875076;29;20063;-79
2021/09/18 11:02:59;;;;;;;17.83;10.13;;;;;14.50;100699.00;;;;4873812;29;20088;-78
2021/09/18 11:05:28;;;;;;;;;;;;;14.70;100704.00;;;;4875857;29;20053;-78
2021/09/18 11:08:19;;;;;;;12.75;8.13;;;;;14.60;100702.00;;;;4876158;29;19928;-80
2021/09/18 11:10:55;;;;;;;14.02;8.52;;;;;14.70;100710.00;;;;4874786;29;20053;-78
2021/09/18 11:13:26;;;;;;;2.67;2.35;;;;;14.80;100688.00;;;;4875116;29;20059;-77
2021/09/18 11:16:16;;;;;;;2.35;1.75;;;;;15.10;100698.00;;;;4874874;29;20072;-79
2021/09/18 11:18:51;;;;;;;2.08;1.75;;;;;15.00;100712.00;;;;4874436;29;20088;-79
2021/09/18 11:21:35;;;;;;;10.55;9.50;;;;;15.00;100696.00;;;;4874089;29;20414;-80
2021/09/18 11:24:04;;;;;;;17.77;15.93;;;;;15.00;100710.00;;;;4873952;29;20053;-76
2021/09/18 11:26:38;;;;;;;12.80;10.40;;;;;15.00;100709.00;;;;4874734;29;20518;-76
2021/09/18 11:29:17;;;;;;;1.75;1.65;;;;;15.00;100709.00;;;;4873880;29;20494;-76
2021/09/18 11:32:10;;;;;;;3.88;3.58;;;;;15.10;100701.00;;;;4873896;29;20063;-76
2021/09/18 11:34:49;;;;;;;8.90;5.72;;;;;15.10;100713.00;;;;4874296;29;20121;-76
2021/09/18 11:37:29;;;;;;;16.30;6.35;;;;;15.30;100688.00;;;;4873641;29;20053;-76
2021/09/18 11:40:02;;;;;;;8.73;7.32;;;;;15.40;100709.00;;;;4873184;29;20084;-75
2021/09/18 11:42:42;;;;;;;125.15;64.28;;;;;15.60;100686.00;;;;4873643;29;20068;-76
2021/09/18 11:45:20;;;;;;;0.70;0.70;;;;;15.70;100687.00;;;;4874095;29;20056;-76
2021/09/18 11:47:51;;;;;;;20.95;13.50;;;;;15.70;100691.00;;;;4874012;29;20509;-76
2021/09/18 11:50:23;;;;;;;10.38;9.25;;;;;15.70;100697.00;;;;4873476;29;20144;-76
2021/09/18 11:52:57;;;;;;;15.30;8.50;;;;;15.90;100687.00;;;;4873463;29;20144;-76
2021/09/18 11:55:44;;;;;;;12.60;9.55;;;;;15.90;100683.00;;;;4873378;29;20061;-76
2021/09/18 11:58:20;;;;;;;16.85;10.98;;;;;16.00;100679.00;;;;4873878;29;20067;-76
2021/09/18 12:01:11;;;;;;;10.63;9.00;;;;;16.30;100686.00;;;;4872783;29;20052;-78
2021/09/18 12:03:43;;;;;;;8.35;4.78;;;;;16.40;100668.00;;;;4874165;29;20056;-76
2021/09/18 12:06:15;;;;;;;8.18;6.53;;;;;16.60;100684.00;;;;4873330;29;20068;-76
2021/09/18 12:08:50;;;;;;;8.52;6.65;;;;;16.50;100686.00;;;;4873733;29;20156;-76
2021/09/18 12:11:20;;;;;;;18.08;5.82;;;;;16.50;100666.00;;;;4873536;29;20063;-76